CheckWX is a tool to help pilots better visualize weather data.  It is not intended as a substitute for an official pre-flight weather briefing.

14:45:49 UTC

KSDA METAR
Shenandoah Municipal Airport
Shenandoah, Iowa, USA
Current

31 mins ago

KSDA 221415Z AUTO 25014KT 10SM FEW022 18/14 A2986 RMK AO2
Observed
Apr-22 @ 14:15 UTC
Wind
  • 250° at 14 KTS
Visibility
10 SM
Flight Rules
VFR
Cloud Levels
  • Few at 2,200' AGL
Temperature
18°C / 64°F
Dewpoint
14°C / 57°F
Humidity
78%
Altimeter
29.86" Hg
Pressure
1011.22 hPa
Previous

51 mins ago

KSDA 221355Z AUTO 24014G19KT 10SM CLR 19/14 A2985 RMK AO2
Observed
Apr-22 @ 13:55 UTC
Wind
  • 240° at 14 KTS
  • Gusting to 19 KTS
Visibility
10 SM
Flight Rules
VFR
Cloud Levels
  • Clear skies
Temperature
19°C / 66°F
Dewpoint
14°C / 57°F
Humidity
73%
Altimeter
29.85" Hg
Pressure
1010.82 hPa
Previous

1 hour ago

KSDA 221335Z AUTO 20010KT 10SM FEW070 18/14 A2984 RMK AO2
Observed
Apr-22 @ 13:35 UTC
Wind
  • 200° at 10 KTS
Visibility
10 SM
Flight Rules
VFR
Cloud Levels
  • Few at 7,000' AGL
Temperature
18°C / 64°F
Dewpoint
14°C / 57°F
Humidity
78%
Altimeter
29.84" Hg
Pressure
1010.52 hPa